sensor_id;sensor_type;location;lat;lon;timestamp;P1;durP1;ratioP1;P2;durP2;ratioP2
81544;SDS011;70990;50.618;7.346;2023-07-24T00:00:45;5.05;;;1.75;;
81544;SDS011;70990;50.618;7.346;2023-07-24T00:03:12;4.47;;;1.40;;
81544;SDS011;70990;50.618;7.346;2023-07-24T00:05:39;4.45;;;1.60;;
81544;SDS011;70990;50.618;7.346;2023-07-24T00:08:05;4.90;;;1.80;;
81544;SDS011;70990;50.618;7.346;2023-07-24T00:10:32;6.05;;;1.83;;
81544;SDS011;70990;50.618;7.346;2023-07-24T00:12:59;3.95;;;1.60;;
81544;SDS011;70990;50.618;7.346;2023-07-24T00:15:26;4.60;;;1.88;;
81544;SDS011;70990;50.618;7.346;2023-07-24T00:17:52;4.13;;;1.90;;
81544;SDS011;70990;50.618;7.346;2023-07-24T00:20:19;5.25;;;2.17;;
81544;SDS011;70990;50.618;7.346;2023-07-24T00:22:45;4.45;;;1.52;;
81544;SDS011;70990;50.618;7.346;2023-07-24T00:25:12;8.77;;;2.10;;
81544;SDS011;70990;50.618;7.346;2023-07-24T00:27:38;5.25;;;2.30;;
81544;SDS011;70990;50.618;7.346;2023-07-24T00:30:05;5.13;;;2.17;;
81544;SDS011;70990;50.618;7.346;2023-07-24T00:32:33;4.40;;;1.60;;
81544;SDS011;70990;50.618;7.346;2023-07-24T00:35:01;6.00;;;2.08;;
81544;SDS011;70990;50.618;7.346;2023-07-24T00:37:28;3.75;;;1.65;;
81544;SDS011;70990;50.618;7.346;2023-07-24T00:39:55;3.55;;;1.58;;
81544;SDS011;70990;50.618;7.346;2023-07-24T00:42:22;4.85;;;1.77;;
81544;SDS011;70990;50.618;7.346;2023-07-24T00:44:49;4.20;;;1.50;;
81544;SDS011;70990;50.618;7.346;2023-07-24T00:47:17;7.07;;;1.73;;
81544;SDS011;70990;50.618;7.346;2023-07-24T00:49:45;5.50;;;1.83;;
81544;SDS011;70990;50.618;7.346;2023-07-24T00:52:13;5.63;;;2.22;;
81544;SDS011;70990;50.618;7.346;2023-07-24T00:54:40;5.45;;;2.10;;
81544;SDS011;70990;50.618;7.346;2023-07-24T00:57:07;3.50;;;1.45;;
81544;SDS011;70990;50.618;7.346;2023-07-24T00:59:34;3.95;;;1.60;;
81544;SDS011;70990;50.618;7.346;2023-07-24T01:02:01;3.55;;;1.45;;
81544;SDS011;70990;50.618;7.346;2023-07-24T01:04:28;5.35;;;2.05;;
81544;SDS011;70990;50.618;7.346;2023-07-24T01:06:56;5.03;;;1.92;;
81544;SDS011;70990;50.618;7.346;2023-07-24T01:09:23;4.13;;;1.65;;
81544;SDS011;70990;50.618;7.346;2023-07-24T01:11:50;6.05;;;1.90;;
81544;SDS011;70990;50.618;7.346;2023-07-24T01:16:53;6.00;;;2.08;;
81544;SDS011;70990;50.618;7.346;2023-07-24T01:27:46;4.72;;;2.13;;
81544;SDS011;70990;50.618;7.346;2023-07-24T01:30:17;4.40;;;1.67;;
81544;SDS011;70990;50.618;7.346;2023-07-24T01:32:46;5.93;;;2.17;;
81544;SDS011;70990;50.618;7.346;2023-07-24T01:35:15;4.72;;;1.90;;
81544;SDS011;70990;50.618;7.346;2023-07-24T01:37:42;4.72;;;1.80;;
81544;SDS011;70990;50.618;7.346;2023-07-24T01:40:10;4.60;;;1.90;;
81544;SDS011;70990;50.618;7.346;2023-07-24T01:42:37;5.05;;;1.80;;
81544;SDS011;70990;50.618;7.346;2023-07-24T01:45:04;4.75;;;2.03;;
81544;SDS011;70990;50.618;7.346;2023-07-24T01:47:32;4.13;;;1.60;;
81544;SDS011;70990;50.618;7.346;2023-07-24T01:49:59;5.82;;;1.85;;
81544;SDS011;70990;50.618;7.346;2023-07-24T01:52:26;5.10;;;1.95;;
81544;SDS011;70990;50.618;7.346;2023-07-24T01:54:53;4.70;;;2.42;;
81544;SDS011;70990;50.618;7.346;2023-07-24T01:57:20;6.20;;;2.10;;
81544;SDS011;70990;50.618;7.346;2023-07-24T01:59:46;5.32;;;1.95;;
81544;SDS011;70990;50.618;7.346;2023-07-24T02:02:13;4.18;;;1.67;;
81544;SDS011;70990;50.618;7.346;2023-07-24T02:04:39;4.68;;;1.73;;
81544;SDS011;70990;50.618;7.346;2023-07-24T02:07:06;6.65;;;2.42;;
81544;SDS011;70990;50.618;7.346;2023-07-24T02:09:33;4.22;;;1.50;;
81544;SDS011;70990;50.618;7.346;2023-07-24T02:11:59;4.75;;;1.80;;
81544;SDS011;70990;50.618;7.346;2023-07-24T02:14:28;4.20;;;1.60;;
81544;SDS011;70990;50.618;7.346;2023-07-24T02:16:54;5.65;;;2.00;;
81544;SDS011;70990;50.618;7.346;2023-07-24T02:19:21;6.00;;;1.85;;
81544;SDS011;70990;50.618;7.346;2023-07-24T02:21:48;6.80;;;2.28;;
81544;SDS011;70990;50.618;7.346;2023-07-24T02:24:14;6.43;;;2.30;;
81544;SDS011;70990;50.618;7.346;2023-07-24T02:26:41;6.53;;;2.00;;
81544;SDS011;70990;50.618;7.346;2023-07-24T02:29:09;6.97;;;2.40;;
81544;SDS011;70990;50.618;7.346;2023-07-24T02:31:36;7.05;;;2.67;;
81544;SDS011;70990;50.618;7.346;2023-07-24T02:34:03;6.68;;;2.28;;
81544;SDS011;70990;50.618;7.346;2023-07-24T02:36:29;7.05;;;2.35;;
81544;SDS011;70990;50.618;7.346;2023-07-24T02:38:56;4.53;;;2.00;;
81544;SDS011;70990;50.618;7.346;2023-07-24T02:41:23;6.00;;;2.22;;
81544;SDS011;70990;50.618;7.346;2023-07-24T02:43:49;6.47;;;2.28;;
81544;SDS011;70990;50.618;7.346;2023-07-24T02:46:18;5.97;;;2.47;;
81544;SDS011;70990;50.618;7.346;2023-07-24T02:48:44;6.00;;;2.15;;
81544;SDS011;70990;50.618;7.346;2023-07-24T02:51:11;5.47;;;2.03;;
81544;SDS011;70990;50.618;7.346;2023-07-24T02:53:38;7.15;;;2.33;;
81544;SDS011;70990;50.618;7.346;2023-07-24T02:56:05;6.50;;;2.65;;
81544;SDS011;70990;50.618;7.346;2023-07-24T02:58:31;7.32;;;2.30;;
81544;SDS011;70990;50.618;7.346;2023-07-24T03:01:04;7.63;;;2.42;;
81544;SDS011;70990;50.618;7.346;2023-07-24T03:03:32;6.75;;;2.70;;
81544;SDS011;70990;50.618;7.346;2023-07-24T03:06:00;10.35;;;2.67;;
81544;SDS011;70990;50.618;7.346;2023-07-24T03:08:27;6.03;;;2.85;;
81544;SDS011;70990;50.618;7.346;2023-07-24T03:10:53;6.47;;;2.63;;
81544;SDS011;70990;50.618;7.346;2023-07-24T03:13:20;6.45;;;2.10;;
81544;SDS011;70990;50.618;7.346;2023-07-24T03:15:53;7.13;;;2.47;;
81544;SDS011;70990;50.618;7.346;2023-07-24T03:18:21;5.68;;;2.10;;
81544;SDS011;70990;50.618;7.346;2023-07-24T03:20:50;6.45;;;2.47;;
81544;SDS011;70990;50.618;7.346;2023-07-24T03:23:17;8.35;;;2.08;;
81544;SDS011;70990;50.618;7.346;2023-07-24T03:25:44;8.25;;;2.20;;
81544;SDS011;70990;50.618;7.346;2023-07-24T03:28:11;5.93;;;2.30;;
81544;SDS011;70990;50.618;7.346;2023-07-24T03:30:37;6.03;;;2.17;;
81544;SDS011;70990;50.618;7.346;2023-07-24T03:33:04;5.90;;;2.53;;
81544;SDS011;70990;50.618;7.346;2023-07-24T03:35:30;7.68;;;2.50;;
81544;SDS011;70990;50.618;7.346;2023-07-24T03:37:57;6.57;;;2.30;;
81544;SDS011;70990;50.618;7.346;2023-07-24T03:40:24;5.18;;;1.92;;
81544;SDS011;70990;50.618;7.346;2023-07-24T03:42:51;6.90;;;1.88;;
81544;SDS011;70990;50.618;7.346;2023-07-24T03:45:18;4.75;;;2.03;;
81544;SDS011;70990;50.618;7.346;2023-07-24T03:47:45;5.93;;;2.38;;
81544;SDS011;70990;50.618;7.346;2023-07-24T03:50:11;6.53;;;2.40;;
81544;SDS011;70990;50.618;7.346;2023-07-24T03:52:38;6.63;;;2.45;;
81544;SDS011;70990;50.618;7.346;2023-07-24T03:55:05;6.53;;;2.35;;
81544;SDS011;70990;50.618;7.346;2023-07-24T03:57:32;5.65;;;1.95;;
81544;SDS011;70990;50.618;7.346;2023-07-24T03:59:58;5.90;;;2.00;;
81544;SDS011;70990;50.618;7.346;2023-07-24T04:02:25;6.97;;;2.40;;
81544;SDS011;70990;50.618;7.346;2023-07-24T04:04:52;5.82;;;1.77;;
81544;SDS011;70990;50.618;7.346;2023-07-24T04:07:18;5.20;;;2.25;;
81544;SDS011;70990;50.618;7.346;2023-07-24T04:09:45;5.68;;;2.20;;
81544;SDS011;70990;50.618;7.346;2023-07-24T04:12:13;5.57;;;2.10;;
81544;SDS011;70990;50.618;7.346;2023-07-24T04:14:39;6.55;;;2.20;;
81544;SDS011;70990;50.618;7.346;2023-07-24T04:17:06;6.53;;;2.55;;
81544;SDS011;70990;50.618;7.346;2023-07-24T04:19:33;5.70;;;2.50;;
81544;SDS011;70990;50.618;7.346;2023-07-24T04:22:00;6.30;;;2.25;;
81544;SDS011;70990;50.618;7.346;2023-07-24T04:24:26;4.70;;;1.98;;
81544;SDS011;70990;50.618;7.346;2023-07-24T04:26:53;6.45;;;2.10;;
81544;SDS011;70990;50.618;7.346;2023-07-24T04:29:20;6.65;;;2.42;;
81544;SDS011;70990;50.618;7.346;2023-07-24T04:31:47;6.57;;;2.08;;
81544;SDS011;70990;50.618;7.346;2023-07-24T04:34:13;5.43;;;1.95;;
81544;SDS011;70990;50.618;7.346;2023-07-24T04:36:40;5.45;;;2.20;;
81544;SDS011;70990;50.618;7.346;2023-07-24T04:39:06;6.97;;;2.60;;
81544;SDS011;70990;50.618;7.346;2023-07-24T04:41:33;6.32;;;2.28;;
81544;SDS011;70990;50.618;7.346;2023-07-24T04:43:59;8.18;;;2.75;;
81544;SDS011;70990;50.618;7.346;2023-07-24T04:46:26;6.07;;;2.55;;
81544;SDS011;70990;50.618;7.346;2023-07-24T04:48:53;7.53;;;2.75;;
81544;SDS011;70990;50.618;7.346;2023-07-24T04:51:19;6.13;;;2.60;;
81544;SDS011;70990;50.618;7.346;2023-07-24T04:53:46;6.40;;;2.75;;
81544;SDS011;70990;50.618;7.346;2023-07-24T04:56:13;6.22;;;2.40;;
81544;SDS011;70990;50.618;7.346;2023-07-24T04:58:40;5.50;;;2.40;;
81544;SDS011;70990;50.618;7.346;2023-07-24T05:01:06;5.25;;;2.20;;
81544;SDS011;70990;50.618;7.346;2023-07-24T05:03:33;6.45;;;2.70;;
81544;SDS011;70990;50.618;7.346;2023-07-24T05:05:59;6.32;;;2.40;;
81544;SDS011;70990;50.618;7.346;2023-07-24T05:08:26;7.00;;;2.50;;
81544;SDS011;70990;50.618;7.346;2023-07-24T05:10:56;6.03;;;2.03;;
81544;SDS011;70990;50.618;7.346;2023-07-24T05:13:24;5.82;;;2.33;;
81544;SDS011;70990;50.618;7.346;2023-07-24T05:15:51;5.25;;;1.92;;
81544;SDS011;70990;50.618;7.346;2023-07-24T05:18:18;5.50;;;2.38;;
81544;SDS011;70990;50.618;7.346;2023-07-24T05:20:47;6.22;;;2.38;;
81544;SDS011;70990;50.618;7.346;2023-07-24T05:23:15;5.43;;;2.22;;
81544;SDS011;70990;50.618;7.346;2023-07-24T05:25:42;7.47;;;2.53;;
81544;SDS011;70990;50.618;7.346;2023-07-24T05:28:09;7.68;;;1.95;;
81544;SDS011;70990;50.618;7.346;2023-07-24T05:30:36;5.07;;;2.00;;
81544;SDS011;70990;50.618;7.346;2023-07-24T05:33:03;8.80;;;3.03;;
81544;SDS011;70990;50.618;7.346;2023-07-24T05:35:29;7.57;;;2.50;;
81544;SDS011;70990;50.618;7.346;2023-07-24T05:37:56;7.30;;;2.20;;
81544;SDS011;70990;50.618;7.346;2023-07-24T05:40:22;8.38;;;3.15;;
81544;SDS011;70990;50.618;7.346;2023-07-24T05:42:49;7.80;;;2.85;;
81544;SDS011;70990;50.618;7.346;2023-07-24T05:45:16;6.30;;;2.70;;
81544;SDS011;70990;50.618;7.346;2023-07-24T05:47:42;10.73;;;3.22;;
81544;SDS011;70990;50.618;7.346;2023-07-24T05:50:09;12.07;;;4.00;;
81544;SDS011;70990;50.618;7.346;2023-07-24T05:52:36;6.60;;;2.53;;
81544;SDS011;70990;50.618;7.346;2023-07-24T05:55:02;6.47;;;2.70;;
81544;SDS011;70990;50.618;7.346;2023-07-24T05:57:29;8.30;;;2.30;;
81544;SDS011;70990;50.618;7.346;2023-07-24T05:59:56;6.85;;;2.28;;
81544;SDS011;70990;50.618;7.346;2023-07-24T06:02:23;7.93;;;2.75;;
81544;SDS011;70990;50.618;7.346;2023-07-24T06:04:50;5.93;;;2.20;;
81544;SDS011;70990;50.618;7.346;2023-07-24T06:07:17;6.57;;;2.53;;
81544;SDS011;70990;50.618;7.346;2023-07-24T06:09:45;7.15;;;2.33;;
81544;SDS011;70990;50.618;7.346;2023-07-24T06:12:12;6.32;;;2.40;;
81544;SDS011;70990;50.618;7.346;2023-07-24T06:14:38;8.05;;;2.67;;
81544;SDS011;70990;50.618;7.346;2023-07-24T06:17:05;8.68;;;2.50;;
81544;SDS011;70990;50.618;7.346;2023-07-24T06:19:34;8.25;;;2.70;;
81544;SDS011;70990;50.618;7.346;2023-07-24T06:22:03;7.10;;;2.53;;
81544;SDS011;70990;50.618;7.346;2023-07-24T06:24:39;7.22;;;2.35;;
81544;SDS011;70990;50.618;7.346;2023-07-24T06:27:07;7.38;;;2.25;;
81544;SDS011;70990;50.618;7.346;2023-07-24T06:29:34;7.07;;;2.20;;
81544;SDS011;70990;50.618;7.346;2023-07-24T06:32:01;6.65;;;2.58;;
81544;SDS011;70990;50.618;7.346;2023-07-24T06:34:28;8.23;;;3.15;;
81544;SDS011;70990;50.618;7.346;2023-07-24T06:36:55;10.73;;;3.17;;
81544;SDS011;70990;50.618;7.346;2023-07-24T06:39:38;6.40;;;2.60;;
81544;SDS011;70990;50.618;7.346;2023-07-24T06:42:04;7.00;;;2.60;;
81544;SDS011;70990;50.618;7.346;2023-07-24T06:44:31;5.28;;;2.00;;
81544;SDS011;70990;50.618;7.346;2023-07-24T06:46:58;7.63;;;2.83;;
81544;SDS011;70990;50.618;7.346;2023-07-24T06:49:26;7.72;;;2.97;;
81544;SDS011;70990;50.618;7.346;2023-07-24T06:51:52;6.10;;;2.33;;
81544;SDS011;70990;50.618;7.346;2023-07-24T06:54:19;5.90;;;2.25;;
81544;SDS011;70990;50.618;7.346;2023-07-24T06:56:45;6.70;;;2.67;;
81544;SDS011;70990;50.618;7.346;2023-07-24T06:59:12;6.82;;;2.33;;
81544;SDS011;70990;50.618;7.346;2023-07-24T07:01:38;6.45;;;2.78;;
81544;SDS011;70990;50.618;7.346;2023-07-24T07:04:05;8.13;;;2.90;;
81544;SDS011;70990;50.618;7.346;2023-07-24T07:06:32;7.05;;;2.72;;
81544;SDS011;70990;50.618;7.346;2023-07-24T07:08:58;5.47;;;2.17;;
81544;SDS011;70990;50.618;7.346;2023-07-24T07:11:25;7.88;;;2.83;;
81544;SDS011;70990;50.618;7.346;2023-07-24T07:13:51;5.80;;;2.22;;
81544;SDS011;70990;50.618;7.346;2023-07-24T07:16:18;6.25;;;2.60;;
81544;SDS011;70990;50.618;7.346;2023-07-24T07:18:45;6.32;;;2.15;;
81544;SDS011;70990;50.618;7.346;2023-07-24T07:21:11;5.13;;;2.22;;
81544;SDS011;70990;50.618;7.346;2023-07-24T07:23:38;5.75;;;2.35;;
81544;SDS011;70990;50.618;7.346;2023-07-24T07:26:04;6.78;;;2.55;;
81544;SDS011;70990;50.618;7.346;2023-07-24T07:28:31;7.50;;;2.40;;
81544;SDS011;70990;50.618;7.346;2023-07-24T07:30:58;6.80;;;2.40;;
81544;SDS011;70990;50.618;7.346;2023-07-24T07:33:24;5.60;;;2.05;;
81544;SDS011;70990;50.618;7.346;2023-07-24T07:35:51;5.63;;;2.22;;
81544;SDS011;70990;50.618;7.346;2023-07-24T07:38:17;6.18;;;2.42;;
81544;SDS011;70990;50.618;7.346;2023-07-24T07:40:44;4.80;;;1.98;;
81544;SDS011;70990;50.618;7.346;2023-07-24T07:43:10;7.28;;;2.40;;
81544;SDS011;70990;50.618;7.346;2023-07-24T07:45:37;6.60;;;2.20;;
81544;SDS011;70990;50.618;7.346;2023-07-24T07:48:04;5.95;;;2.08;;
81544;SDS011;70990;50.618;7.346;2023-07-24T07:50:31;5.85;;;2.20;;
81544;SDS011;70990;50.618;7.346;2023-07-24T07:52:59;5.38;;;2.20;;
81544;SDS011;70990;50.618;7.346;2023-07-24T07:55:26;5.75;;;2.03;;
81544;SDS011;70990;50.618;7.346;2023-07-24T07:57:53;4.55;;;1.98;;
81544;SDS011;70990;50.618;7.346;2023-07-24T08:00:19;6.97;;;2.58;;
81544;SDS011;70990;50.618;7.346;2023-07-24T08:02:46;6.20;;;1.98;;
81544;SDS011;70990;50.618;7.346;2023-07-24T08:05:12;7.57;;;2.00;;
81544;SDS011;70990;50.618;7.346;2023-07-24T08:07:46;8.05;;;3.20;;
81544;SDS011;70990;50.618;7.346;2023-07-24T08:10:13;8.18;;;2.42;;
81544;SDS011;70990;50.618;7.346;2023-07-24T08:12:40;6.13;;;2.38;;
81544;SDS011;70990;50.618;7.346;2023-07-24T08:15:07;12.75;;;2.63;;
81544;SDS011;70990;50.618;7.346;2023-07-24T08:17:34;7.03;;;2.25;;
81544;SDS011;70990;50.618;7.346;2023-07-24T08:20:01;5.47;;;2.03;;
81544;SDS011;70990;50.618;7.346;2023-07-24T08:22:27;7.90;;;2.78;;
81544;SDS011;70990;50.618;7.346;2023-07-24T08:24:54;7.00;;;2.55;;
81544;SDS011;70990;50.618;7.346;2023-07-24T08:27:22;4.20;;;2.08;;
81544;SDS011;70990;50.618;7.346;2023-07-24T08:29:52;4.57;;;2.25;;
81544;SDS011;70990;50.618;7.346;2023-07-24T08:32:19;5.40;;;2.10;;
81544;SDS011;70990;50.618;7.346;2023-07-24T08:34:46;5.63;;;1.83;;
81544;SDS011;70990;50.618;7.346;2023-07-24T08:37:12;5.45;;;2.10;;
81544;SDS011;70990;50.618;7.346;2023-07-24T08:39:39;4.55;;;1.95;;
81544;SDS011;70990;50.618;7.346;2023-07-24T08:42:09;7.57;;;1.98;;
81544;SDS011;70990;50.618;7.346;2023-07-24T08:44:40;6.18;;;2.45;;
81544;SDS011;70990;50.618;7.346;2023-07-24T08:47:11;5.30;;;1.90;;
81544;SDS011;70990;50.618;7.346;2023-07-24T08:49:40;7.05;;;2.13;;
81544;SDS011;70990;50.618;7.346;2023-07-24T08:52:09;5.40;;;2.00;;
81544;SDS011;70990;50.618;7.346;2023-07-24T08:54:52;6.60;;;1.88;;
81544;SDS011;70990;50.618;7.346;2023-07-24T08:57:23;5.47;;;2.13;;
81544;SDS011;70990;50.618;7.346;2023-07-24T08:59:51;6.63;;;1.80;;
81544;SDS011;70990;50.618;7.346;2023-07-24T09:02:19;6.47;;;2.00;;
81544;SDS011;70990;50.618;7.346;2023-07-24T09:04:46;5.30;;;1.92;;
81544;SDS011;70990;50.618;7.346;2023-07-24T09:07:13;4.88;;;1.75;;
81544;SDS011;70990;50.618;7.346;2023-07-24T09:09:39;4.38;;;1.70;;
81544;SDS011;70990;50.618;7.346;2023-07-24T09:12:06;4.90;;;2.10;;
81544;SDS011;70990;50.618;7.346;2023-07-24T09:14:33;4.78;;;1.70;;
81544;SDS011;70990;50.618;7.346;2023-07-24T09:17:08;4.93;;;1.75;;
81544;SDS011;70990;50.618;7.346;2023-07-24T09:19:37;4.95;;;1.80;;
81544;SDS011;70990;50.618;7.346;2023-07-24T09:22:11;3.80;;;1.45;;
81544;SDS011;70990;50.618;7.346;2023-07-24T09:24:55;4.10;;;1.92;;
81544;SDS011;70990;50.618;7.346;2023-07-24T09:27:29;5.82;;;2.00;;
81544;SDS011;70990;50.618;7.346;2023-07-24T09:29:58;4.55;;;1.65;;
81544;SDS011;70990;50.618;7.346;2023-07-24T09:32:25;5.13;;;1.80;;
81544;SDS011;70990;50.618;7.346;2023-07-24T09:34:54;4.03;;;1.63;;
81544;SDS011;70990;50.618;7.346;2023-07-24T09:39:56;4.40;;;1.70;;
81544;SDS011;70990;50.618;7.346;2023-07-24T09:42:32;5.72;;;1.85;;
81544;SDS011;70990;50.618;7.346;2023-07-24T09:45:03;6.63;;;1.90;;
81544;SDS011;70990;50.618;7.346;2023-07-24T09:47:31;5.85;;;1.75;;
81544;SDS011;70990;50.618;7.346;2023-07-24T09:50:17;4.75;;;1.70;;
81544;SDS011;70990;50.618;7.346;2023-07-24T09:52:44;5.22;;;2.00;;
81544;SDS011;70990;50.618;7.346;2023-07-24T09:55:24;4.75;;;1.70;;
81544;SDS011;70990;50.618;7.346;2023-07-24T09:57:55;3.90;;;1.80;;
81544;SDS011;70990;50.618;7.346;2023-07-24T10:00:23;4.85;;;1.67;;
81544;SDS011;70990;50.618;7.346;2023-07-24T10:02:52;6.35;;;1.90;;
81544;SDS011;70990;50.618;7.346;2023-07-24T10:05:19;5.38;;;2.30;;
81544;SDS011;70990;50.618;7.346;2023-07-24T10:07:46;4.60;;;1.95;;
81544;SDS011;70990;50.618;7.346;2023-07-24T10:10:14;5.30;;;1.88;;
81544;SDS011;70990;50.618;7.346;2023-07-24T10:12:41;6.22;;;2.13;;
81544;SDS011;70990;50.618;7.346;2023-07-24T10:15:08;6.75;;;2.25;;
81544;SDS011;70990;50.618;7.346;2023-07-24T10:17:39;6.25;;;2.10;;
81544;SDS011;70990;50.618;7.346;2023-07-24T10:20:08;6.82;;;2.38;;
81544;SDS011;70990;50.618;7.346;2023-07-24T10:22:40;5.93;;;2.00;;
81544;SDS011;70990;50.618;7.346;2023-07-24T10:25:08;5.13;;;2.00;;
81544;SDS011;70990;50.618;7.346;2023-07-24T10:27:42;8.48;;;2.00;;
81544;SDS011;70990;50.618;7.346;2023-07-24T10:30:09;5.85;;;2.30;;
81544;SDS011;70990;50.618;7.346;2023-07-24T10:35:40;6.85;;;1.98;;
81544;SDS011;70990;50.618;7.346;2023-07-24T10:38:09;5.05;;;1.85;;
81544;SDS011;70990;50.618;7.346;2023-07-24T10:40:36;4.68;;;1.77;;
81544;SDS011;70990;50.618;7.346;2023-07-24T10:43:07;6.78;;;2.10;;
81544;SDS011;70990;50.618;7.346;2023-07-24T10:45:53;4.15;;;1.60;;
81544;SDS011;70990;50.618;7.346;2023-07-24T10:48:21;4.05;;;1.70;;
81544;SDS011;70990;50.618;7.346;2023-07-24T10:50:52;5.93;;;1.90;;
81544;SDS011;70990;50.618;7.346;2023-07-24T10:53:21;4.72;;;1.80;;
81544;SDS011;70990;50.618;7.346;2023-07-24T10:55:49;4.05;;;1.42;;
81544;SDS011;70990;50.618;7.346;2023-07-24T10:58:17;4.45;;;1.70;;
81544;SDS011;70990;50.618;7.346;2023-07-24T11:00:44;4.88;;;1.80;;
81544;SDS011;70990;50.618;7.346;2023-07-24T11:03:12;4.85;;;2.08;;
81544;SDS011;70990;50.618;7.346;2023-07-24T11:05:41;5.13;;;2.20;;
81544;SDS011;70990;50.618;7.346;2023-07-24T11:08:09;4.80;;;2.10;;
81544;SDS011;70990;50.618;7.346;2023-07-24T11:10:39;5.28;;;2.03;;
81544;SDS011;70990;50.618;7.346;2023-07-24T11:13:24;4.55;;;1.63;;
81544;SDS011;70990;50.618;7.346;2023-07-24T11:15:52;7.55;;;2.00;;
81544;SDS011;70990;50.618;7.346;2023-07-24T11:18:21;7.82;;;1.90;;
81544;SDS011;70990;50.618;7.346;2023-07-24T11:20:52;5.50;;;2.03;;
81544;SDS011;70990;50.618;7.346;2023-07-24T11:23:20;6.25;;;1.92;;
81544;SDS011;70990;50.618;7.346;2023-07-24T11:25:49;3.58;;;1.55;;
81544;SDS011;70990;50.618;7.346;2023-07-24T11:28:20;4.47;;;1.88;;
81544;SDS011;70990;50.618;7.346;2023-07-24T11:30:46;6.03;;;1.92;;
81544;SDS011;70990;50.618;7.346;2023-07-24T11:33:14;4.57;;;1.73;;
81544;SDS011;70990;50.618;7.346;2023-07-24T11:35:44;5.30;;;1.80;;
81544;SDS011;70990;50.618;7.346;2023-07-24T11:38:12;6.25;;;1.98;;
81544;SDS011;70990;50.618;7.346;2023-07-24T11:40:40;5.78;;;2.10;;
81544;SDS011;70990;50.618;7.346;2023-07-24T11:43:18;6.00;;;2.00;;
81544;SDS011;70990;50.618;7.346;2023-07-24T11:45:47;5.35;;;2.15;;
81544;SDS011;70990;50.618;7.346;2023-07-24T11:48:14;5.90;;;2.10;;
81544;SDS011;70990;50.618;7.346;2023-07-24T11:50:42;5.70;;;1.92;;
81544;SDS011;70990;50.618;7.346;2023-07-24T11:53:18;7.30;;;2.30;;
81544;SDS011;70990;50.618;7.346;2023-07-24T11:55:49;7.95;;;2.53;;
81544;SDS011;70990;50.618;7.346;2023-07-24T11:58:17;5.45;;;1.80;;
81544;SDS011;70990;50.618;7.346;2023-07-24T12:00:45;6.15;;;2.30;;
81544;SDS011;70990;50.618;7.346;2023-07-24T12:03:13;5.70;;;2.00;;
81544;SDS011;70990;50.618;7.346;2023-07-24T12:05:45;5.78;;;1.85;;
81544;SDS011;70990;50.618;7.346;2023-07-24T12:08:16;4.65;;;2.08;;
81544;SDS011;70990;50.618;7.346;2023-07-24T12:10:44;8.60;;;2.30;;
81544;SDS011;70990;50.618;7.346;2023-07-24T12:13:13;5.88;;;2.03;;
81544;SDS011;70990;50.618;7.346;2023-07-24T12:15:39;6.72;;;2.42;;
81544;SDS011;70990;50.618;7.346;2023-07-24T12:18:06;9.45;;;2.55;;
81544;SDS011;70990;50.618;7.346;2023-07-24T12:20:33;6.32;;;1.90;;
81544;SDS011;70990;50.618;7.346;2023-07-24T12:23:00;4.90;;;2.05;;
81544;SDS011;70990;50.618;7.346;2023-07-24T12:25:28;6.55;;;1.67;;
81544;SDS011;70990;50.618;7.346;2023-07-24T12:27:58;5.43;;;1.55;;
81544;SDS011;70990;50.618;7.346;2023-07-24T12:30:25;5.55;;;1.38;;
81544;SDS011;70990;50.618;7.346;2023-07-24T12:32:52;5.65;;;1.52;;
81544;SDS011;70990;50.618;7.346;2023-07-24T12:35:19;3.88;;;1.60;;
81544;SDS011;70990;50.618;7.346;2023-07-24T12:37:45;5.78;;;1.40;;
81544;SDS011;70990;50.618;7.346;2023-07-24T12:40:12;4.53;;;1.52;;
81544;SDS011;70990;50.618;7.346;2023-07-24T12:42:39;3.60;;;1.10;;
81544;SDS011;70990;50.618;7.346;2023-07-24T12:45:06;3.42;;;1.02;;
81544;SDS011;70990;50.618;7.346;2023-07-24T12:47:33;3.03;;;1.30;;
81544;SDS011;70990;50.618;7.346;2023-07-24T12:50:00;4.05;;;1.23;;
81544;SDS011;70990;50.618;7.346;2023-07-24T12:52:28;4.95;;;1.58;;
81544;SDS011;70990;50.618;7.346;2023-07-24T12:54:55;5.72;;;1.80;;
81544;SDS011;70990;50.618;7.346;2023-07-24T12:57:28;3.50;;;1.20;;
81544;SDS011;70990;50.618;7.346;2023-07-24T12:59:55;6.80;;;1.45;;
81544;SDS011;70990;50.618;7.346;2023-07-24T13:02:22;3.95;;;1.40;;
81544;SDS011;70990;50.618;7.346;2023-07-24T13:04:49;3.67;;;1.23;;
81544;SDS011;70990;50.618;7.346;2023-07-24T13:07:15;6.35;;;1.35;;
81544;SDS011;70990;50.618;7.346;2023-07-24T13:09:42;5.47;;;2.22;;
81544;SDS011;70990;50.618;7.346;2023-07-24T13:12:09;4.15;;;1.52;;
81544;SDS011;70990;50.618;7.346;2023-07-24T13:14:35;4.95;;;1.60;;
81544;SDS011;70990;50.618;7.346;2023-07-24T13:17:06;5.25;;;1.30;;
81544;SDS011;70990;50.618;7.346;2023-07-24T13:19:33;3.95;;;1.55;;
81544;SDS011;70990;50.618;7.346;2023-07-24T13:21:59;4.22;;;1.52;;
81544;SDS011;70990;50.618;7.346;2023-07-24T13:24:26;3.80;;;1.30;;
81544;SDS011;70990;50.618;7.346;2023-07-24T13:26:52;3.75;;;1.27;;
81544;SDS011;70990;50.618;7.346;2023-07-24T13:29:19;3.22;;;1.23;;
81544;SDS011;70990;50.618;7.346;2023-07-24T13:31:52;4.13;;;1.30;;
81544;SDS011;70990;50.618;7.346;2023-07-24T13:34:19;3.53;;;1.20;;
81544;SDS011;70990;50.618;7.346;2023-07-24T13:36:47;5.07;;;1.50;;
81544;SDS011;70990;50.618;7.346;2023-07-24T13:39:13;5.00;;;1.50;;
81544;SDS011;70990;50.618;7.346;2023-07-24T13:41:40;5.60;;;1.75;;
81544;SDS011;70990;50.618;7.346;2023-07-24T13:44:07;6.28;;;1.60;;
81544;SDS011;70990;50.618;7.346;2023-07-24T13:46:34;3.67;;;1.45;;
81544;SDS011;70990;50.618;7.346;2023-07-24T13:49:05;6.88;;;1.30;;
81544;SDS011;70990;50.618;7.346;2023-07-24T13:51:31;3.47;;;1.40;;
81544;SDS011;70990;50.618;7.346;2023-07-24T13:53:58;3.28;;;1.15;;
81544;SDS011;70990;50.618;7.346;2023-07-24T13:56:28;4.15;;;1.25;;
81544;SDS011;70990;50.618;7.346;2023-07-24T13:58:54;4.68;;;1.20;;
81544;SDS011;70990;50.618;7.346;2023-07-24T14:01:21;3.20;;;0.95;;
81544;SDS011;70990;50.618;7.346;2023-07-24T14:03:48;1.95;;;0.90;;
81544;SDS011;70990;50.618;7.346;2023-07-24T14:06:15;1.83;;;0.60;;
81544;SDS011;70990;50.618;7.346;2023-07-24T14:08:47;8.55;;;1.00;;
81544;SDS011;70990;50.618;7.346;2023-07-24T14:11:51;1.58;;;0.70;;
81544;SDS011;70990;50.618;7.346;2023-07-24T14:14:18;2.25;;;0.85;;
81544;SDS011;70990;50.618;7.346;2023-07-24T14:16:44;1.50;;;0.80;;
81544;SDS011;70990;50.618;7.346;2023-07-24T14:19:11;2.10;;;0.95;;
81544;SDS011;70990;50.618;7.346;2023-07-24T14:21:37;3.28;;;1.13;;
81544;SDS011;70990;50.618;7.346;2023-07-24T14:24:04;2.28;;;0.68;;
81544;SDS011;70990;50.618;7.346;2023-07-24T14:26:31;3.55;;;1.25;;
81544;SDS011;70990;50.618;7.346;2023-07-24T14:28:57;2.00;;;0.70;;
81544;SDS011;70990;50.618;7.346;2023-07-24T14:31:24;1.55;;;0.77;;
81544;SDS011;70990;50.618;7.346;2023-07-24T14:33:51;2.30;;;0.88;;
81544;SDS011;70990;50.618;7.346;2023-07-24T14:36:18;3.55;;;1.20;;
81544;SDS011;70990;50.618;7.346;2023-07-24T14:38:44;2.03;;;0.88;;
81544;SDS011;70990;50.618;7.346;2023-07-24T14:41:11;3.53;;;0.90;;
81544;SDS011;70990;50.618;7.346;2023-07-24T14:43:39;1.90;;;0.85;;
81544;SDS011;70990;50.618;7.346;2023-07-24T14:46:06;3.92;;;0.90;;
81544;SDS011;70990;50.618;7.346;2023-07-24T14:48:33;2.75;;;0.90;;
81544;SDS011;70990;50.618;7.346;2023-07-24T14:50:59;4.90;;;1.30;;
81544;SDS011;70990;50.618;7.346;2023-07-24T14:53:26;3.30;;;0.90;;
81544;SDS011;70990;50.618;7.346;2023-07-24T14:55:53;1.40;;;0.80;;
81544;SDS011;70990;50.618;7.346;2023-07-24T14:58:19;2.10;;;0.85;;
81544;SDS011;70990;50.618;7.346;2023-07-24T15:00:46;1.80;;;0.90;;
81544;SDS011;70990;50.618;7.346;2023-07-24T15:03:13;3.08;;;1.15;;
81544;SDS011;70990;50.618;7.346;2023-07-24T15:05:40;2.78;;;1.10;;
81544;SDS011;70990;50.618;7.346;2023-07-24T15:08:06;3.53;;;0.95;;